createdAt,value
2019-03-31T00:04:32.515Z,15.77
2019-03-31T00:09:27.136Z,15.60
2019-03-31T00:14:21.712Z,15.53
2019-03-31T00:19:15.829Z,14.53
2019-03-31T00:24:10.426Z,17.40
2019-03-31T00:29:05.057Z,19.03
2019-03-31T00:33:59.614Z,17.53
2019-03-31T00:38:54.083Z,18.00
2019-03-31T00:43:48.820Z,17.83
2019-03-31T00:48:43.212Z,18.00
2019-03-31T00:53:37.801Z,17.30
2019-03-31T00:58:32.000Z,16.77
2019-03-31T01:03:26.455Z,17.57
2019-03-31T01:08:21.224Z,16.70
2019-03-31T01:13:15.846Z,16.47
2019-03-31T01:18:10.827Z,16.13
2019-03-31T01:23:05.688Z,16.10
2019-03-31T01:28:00.083Z,16.73
2019-03-31T01:32:55.214Z,15.67
2019-03-31T01:37:50.743Z,14.87
2019-03-31T01:42:45.241Z,15.37
2019-03-31T01:47:39.829Z,14.60
2019-03-31T01:52:34.196Z,14.90
2019-03-31T01:57:28.665Z,15.37
2019-03-31T02:02:28.831Z,14.17
2019-03-31T02:07:23.369Z,16.10
2019-03-31T02:12:17.767Z,14.93
2019-03-31T02:17:12.410Z,14.83
2019-03-31T02:22:06.863Z,14.73
2019-03-31T02:27:01.488Z,14.80
2019-03-31T02:31:55.998Z,14.33
2019-03-31T02:36:50.519Z,13.43
2019-03-31T02:41:45.034Z,14.40
2019-03-31T02:46:40.784Z,14.57
2019-03-31T02:51:35.393Z,14.53
2019-03-31T02:56:30.651Z,14.90
2019-03-31T03:01:26.030Z,14.87
2019-03-31T03:06:21.591Z,15.53
2019-03-31T03:11:17.489Z,15.07
2019-03-31T03:16:18.504Z,14.97
2019-03-31T03:21:13.040Z,15.97
2019-03-31T03:26:07.667Z,15.47
2019-03-31T03:31:02.430Z,14.47
2019-03-31T03:35:57.007Z,14.27
2019-03-31T03:40:51.473Z,14.60
2019-03-31T03:45:46.026Z,14.93
2019-03-31T03:50:40.585Z,15.17
2019-03-31T03:55:35.152Z,14.07
2019-03-31T04:00:29.603Z,16.90
2019-03-31T04:05:23.876Z,14.33
2019-03-31T04:11:13.283Z,13.40
2019-03-31T04:16:07.735Z,15.17
2019-03-31T04:21:02.394Z,15.17
2019-03-31T04:25:56.890Z,14.43
2019-03-31T04:30:50.959Z,14.83
2019-03-31T04:36:04.442Z,15.33
2019-03-31T04:40:58.701Z,14.47
2019-03-31T04:45:53.153Z,14.40
2019-03-31T04:50:47.471Z,14.13
2019-03-31T04:55:42.081Z,14.77
2019-03-31T05:00:38.974Z,14.23
2019-03-31T05:05:34.275Z,15.40
2019-03-31T05:10:29.009Z,15.27
2019-03-31T05:15:23.702Z,15.90
2019-03-31T05:20:18.194Z,14.43
2019-03-31T05:25:12.858Z,15.90
2019-03-31T05:30:07.440Z,14.53
2019-03-31T05:35:01.891Z,15.60
2019-03-31T05:39:56.575Z,14.83
2019-03-31T05:44:51.191Z,14.73
2019-03-31T05:49:45.740Z,15.27
2019-03-31T05:54:40.306Z,15.30
2019-03-31T05:59:34.736Z,16.20
2019-03-31T06:04:33.325Z,14.77
2019-03-31T06:09:27.673Z,15.33
2019-03-31T06:14:22.328Z,15.63
2019-03-31T06:19:16.919Z,15.60
2019-03-31T06:24:11.423Z,15.33
2019-03-31T06:29:06.697Z,15.33
2019-03-31T06:34:01.380Z,15.20
2019-03-31T06:38:55.720Z,15.23
2019-03-31T06:43:50.129Z,15.10
2019-03-31T06:48:44.526Z,14.97
2019-03-31T06:53:38.679Z,16.37
2019-03-31T06:58:33.061Z,15.90
2019-03-31T07:03:27.717Z,16.60
2019-03-31T07:08:24.341Z,16.30
2019-03-31T07:13:18.709Z,16.83
2019-03-31T07:18:15.910Z,16.37
2019-03-31T07:23:09.238Z,16.33
2019-03-31T07:28:03.439Z,16.30
2019-03-31T07:32:59.769Z,17.33
2019-03-31T07:37:54.790Z,19.50
2019-03-31T07:42:51.260Z,23.87
2019-03-31T07:47:46.185Z,24.97
2019-03-31T07:52:40.667Z,26.57
2019-03-31T07:57:35.133Z,25.33
2019-03-31T08:02:29.637Z,24.73
2019-03-31T08:07:24.151Z,27.40
2019-03-31T08:12:18.399Z,29.57
2019-03-31T08:17:12.854Z,28.00
2019-03-31T08:22:09.199Z,29.23
2019-03-31T08:27:05.591Z,31.77
2019-03-31T08:31:59.743Z,32.63
2019-03-31T08:36:54.340Z,36.10
2019-03-31T08:41:48.855Z,34.53
2019-03-31T08:46:43.154Z,36.80
2019-03-31T08:51:38.593Z,38.17
2019-03-31T08:56:33.287Z,40.73
2019-03-31T09:01:27.718Z,39.33
2019-03-31T09:06:22.315Z,40.67
2019-03-31T09:11:16.876Z,39.10
2019-03-31T09:16:11.410Z,39.40
2019-03-31T09:21:05.803Z,41.37
2019-03-31T09:25:59.963Z,40.43
2019-03-31T09:30:54.657Z,39.00
2019-03-31T09:35:51.843Z,40.40
2019-03-31T09:40:46.508Z,40.03
2019-03-31T09:45:40.835Z,40.93
2019-03-31T09:50:35.499Z,39.90
2019-03-31T09:55:29.802Z,39.87
2019-03-31T10:00:47.860Z,40.63
2019-03-31T10:05:42.505Z,40.73
2019-03-31T10:10:38.898Z,40.23
2019-03-31T10:15:33.089Z,41.30
2019-03-31T10:20:31.520Z,40.30
2019-03-31T10:25:25.246Z,40.07
2019-03-31T10:30:30.885Z,42.07
2019-03-31T10:35:25.627Z,41.10
2019-03-31T10:40:21.211Z,41.30
2019-03-31T10:45:16.707Z,40.47
2019-03-31T10:50:11.257Z,41.30
2019-03-31T10:55:06.504Z,41.23
2019-03-31T11:00:01.036Z,43.17
2019-03-31T11:04:56.774Z,40.53
2019-03-31T11:09:51.264Z,38.77
2019-03-31T11:14:45.713Z,39.27
2019-03-31T11:19:40.176Z,36.43
2019-03-31T11:24:34.721Z,35.07
2019-03-31T11:29:29.387Z,36.07
2019-03-31T11:34:23.911Z,33.13
2019-03-31T11:39:17.980Z,33.80
2019-03-31T11:44:14.018Z,31.47
2019-03-31T11:49:08.674Z,32.03
2019-03-31T11:54:04.109Z,31.10
2019-03-31T11:59:00.177Z,31.83
2019-03-31T12:03:54.648Z,31.07
2019-03-31T12:08:49.167Z,28.13
2019-03-31T12:13:43.589Z,27.03
2019-03-31T12:18:38.023Z,25.67
2019-03-31T12:23:32.392Z,23.27
2019-03-31T12:28:26.915Z,22.27
2019-03-31T12:33:20.952Z,20.13
2019-03-31T12:38:15.410Z,19.37
2019-03-31T12:43:09.529Z,20.53
2019-03-31T12:48:03.784Z,19.37
2019-03-31T12:52:58.092Z,18.47
2019-03-31T12:57:52.348Z,18.77
2019-03-31T13:02:46.588Z,19.33
2019-03-31T13:07:40.779Z,18.37
2019-03-31T13:12:35.432Z,18.50
2019-03-31T13:17:29.850Z,18.87
2019-03-31T13:22:24.404Z,18.90
2019-03-31T13:27:18.898Z,18.80
2019-03-31T13:32:13.006Z,17.20
2019-03-31T13:37:07.073Z,16.77
2019-03-31T13:42:01.355Z,16.93
2019-03-31T13:46:55.693Z,17.90
2019-03-31T13:51:50.107Z,17.73
2019-03-31T13:56:47.738Z,16.80
2019-03-31T14:01:41.140Z,17.23
2019-03-31T14:06:35.346Z,16.40
2019-03-31T14:11:29.732Z,15.97
2019-03-31T14:16:28.909Z,15.80
2019-03-31T14:21:21.903Z,15.43
2019-03-31T14:26:16.424Z,15.03
2019-03-31T14:31:10.941Z,15.53
2019-03-31T14:36:05.759Z,15.27
2019-03-31T14:41:00.389Z,14.10
2019-03-31T14:45:54.804Z,14.80
2019-03-31T14:50:48.846Z,14.27
2019-03-31T14:55:43.003Z,14.40
2019-03-31T15:00:38.034Z,13.43
2019-03-31T15:05:32.461Z,13.23
2019-03-31T15:10:26.801Z,12.73
2019-03-31T15:15:20.921Z,13.30
2019-03-31T15:20:16.914Z,13.23
2019-03-31T15:25:11.489Z,12.93
2019-03-31T15:30:06.577Z,13.33
2019-03-31T15:35:00.700Z,12.97
2019-03-31T15:39:55.006Z,12.50
2019-03-31T15:44:49.224Z,11.60
2019-03-31T15:49:44.423Z,11.43
2019-03-31T15:54:38.616Z,11.40
2019-03-31T15:59:32.625Z,10.27
2019-03-31T16:04:26.668Z,9.80
2019-03-31T16:09:23.764Z,9.20
2019-03-31T16:14:15.052Z,8.40
2019-03-31T16:19:08.297Z,9.33
2019-03-31T16:24:02.219Z,8.93
2019-03-31T16:28:55.378Z,8.70
2019-03-31T16:33:48.723Z,8.30
2019-03-31T16:38:42.256Z,8.67
2019-03-31T16:43:35.780Z,9.00
2019-03-31T16:48:28.998Z,8.83
2019-03-31T16:53:22.403Z,7.70
2019-03-31T16:58:16.012Z,8.00
2019-03-31T17:03:10.126Z,8.20
2019-03-31T17:08:05.214Z,7.80
2019-03-31T17:12:58.773Z,8.17
2019-03-31T17:17:52.001Z,8.13
2019-03-31T17:22:45.761Z,7.70
2019-03-31T17:27:39.168Z,8.13
2019-03-31T17:32:32.716Z,8.47
2019-03-31T17:37:26.617Z,8.47
2019-03-31T17:42:20.361Z,8.00
2019-03-31T17:47:14.251Z,8.63
2019-03-31T17:52:07.463Z,9.37
2019-03-31T17:57:00.852Z,8.57
2019-03-31T18:01:54.161Z,8.07
2019-03-31T18:06:47.593Z,8.27
2019-03-31T18:11:40.850Z,7.80
2019-03-31T18:16:34.563Z,8.60
2019-03-31T18:21:28.204Z,8.00
2019-03-31T18:26:21.858Z,8.03
2019-03-31T18:31:15.169Z,7.50
2019-03-31T18:36:08.902Z,7.80
2019-03-31T18:41:03.841Z,8.43
2019-03-31T18:45:59.168Z,7.30
2019-03-31T18:50:52.905Z,7.73
2019-03-31T18:56:07.480Z,7.57
2019-03-31T19:01:21.040Z,6.70
2019-03-31T19:06:34.336Z,7.43
2019-03-31T19:11:53.064Z,6.70
2019-03-31T19:16:56.483Z,6.90
2019-03-31T19:22:16.542Z,6.30
2019-03-31T19:27:44.679Z,5.77
2019-03-31T19:32:59.433Z,6.33
2019-03-31T19:38:21.052Z,5.83
2019-03-31T19:43:24.076Z,5.53
2019-03-31T19:48:43.023Z,5.90
2019-03-31T19:53:54.824Z,6.03
2019-03-31T19:59:16.760Z,5.67
2019-03-31T20:04:22.466Z,5.17
2019-03-31T20:09:35.266Z,5.00
2019-03-31T20:14:53.758Z,5.00
2019-03-31T20:20:04.863Z,4.80
2019-03-31T20:25:26.450Z,5.57
2019-03-31T20:30:37.672Z,4.40
2019-03-31T20:35:49.708Z,4.73
2019-03-31T20:40:53.414Z,4.90
2019-03-31T20:45:46.699Z,4.70
2019-03-31T20:50:40.065Z,4.27
2019-03-31T20:55:33.572Z,4.47
2019-03-31T21:00:26.833Z,5.07
2019-03-31T21:05:20.097Z,4.73
2019-03-31T21:10:13.690Z,4.83
2019-03-31T21:15:07.557Z,4.90
2019-03-31T21:20:00.868Z,4.37
2019-03-31T21:24:54.529Z,4.17
2019-03-31T21:29:47.760Z,3.63
2019-03-31T21:34:41.173Z,4.50
2019-03-31T21:39:34.533Z,4.10
2019-03-31T21:44:27.860Z,3.80
2019-03-31T21:49:21.039Z,3.47
2019-03-31T21:54:14.255Z,3.30
2019-03-31T21:59:07.462Z,3.63
2019-03-31T22:04:00.850Z,3.23
2019-03-31T22:08:54.306Z,3.47
2019-03-31T22:13:47.531Z,3.40
2019-03-31T22:18:40.712Z,3.30
2019-03-31T22:23:34.896Z,3.20
2019-03-31T22:28:28.120Z,3.03
2019-03-31T22:33:21.474Z,3.40
2019-03-31T22:38:14.568Z,2.53
2019-03-31T22:43:08.113Z,3.03
2019-03-31T22:48:01.350Z,2.80
2019-03-31T22:52:55.003Z,2.67
2019-03-31T22:57:48.236Z,2.80
2019-03-31T23:02:41.389Z,2.60
2019-03-31T23:07:35.816Z,2.73
2019-03-31T23:12:29.082Z,2.63
2019-03-31T23:17:22.278Z,2.57
2019-03-31T23:22:15.398Z,2.30
2019-03-31T23:27:08.611Z,2.13
2019-03-31T23:32:05.952Z,2.27
2019-03-31T23:37:04.297Z,2.40
2019-03-31T23:41:57.664Z,2.23
2019-03-31T23:46:50.805Z,2.00
2019-03-31T23:51:43.965Z,2.90
2019-03-31T23:56:37.096Z,2.00
